createdAt,value
2023-04-27T00:02:20.369Z,3.45
2023-04-27T00:04:48.110Z,2.53
2023-04-27T00:07:15.767Z,2.60
2023-04-27T00:09:43.145Z,2.28
2023-04-27T00:12:10.536Z,3.38
2023-04-27T00:14:37.522Z,1.95
2023-04-27T00:17:04.878Z,2.22
2023-04-27T00:19:32.318Z,3.10
2023-04-27T00:22:00.323Z,2.08
2023-04-27T00:24:27.953Z,2.53
2023-04-27T00:26:55.728Z,2.08
2023-04-27T00:29:23.100Z,3.00
2023-04-27T00:31:50.540Z,3.58
2023-04-27T00:34:17.999Z,2.75
2023-04-27T00:36:45.502Z,1.58
2023-04-27T00:39:13.064Z,2.53
2023-04-27T00:41:40.809Z,3.10
2023-04-27T00:44:08.234Z,1.95
2023-04-27T00:46:36.268Z,2.55
2023-04-27T00:49:03.747Z,2.65
2023-04-27T00:51:32.218Z,2.88
2023-04-27T00:54:00.149Z,1.95
2023-04-27T00:56:27.514Z,1.83
2023-04-27T00:58:54.881Z,2.22
2023-04-27T01:01:22.399Z,2.70
2023-04-27T01:03:50.087Z,1.98
2023-04-27T01:06:17.936Z,5.53
2023-04-27T01:08:46.600Z,3.05
2023-04-27T01:11:14.099Z,2.88
2023-04-27T01:13:41.463Z,2.20
2023-04-27T01:16:08.830Z,2.00
2023-04-27T01:18:36.278Z,2.38
2023-04-27T01:21:03.708Z,2.05
2023-04-27T01:23:31.167Z,2.67
2023-04-27T01:25:58.533Z,2.55
2023-04-27T01:28:25.954Z,2.10
2023-04-27T01:30:53.434Z,2.47
2023-04-27T01:33:21.470Z,3.45
2023-04-27T01:35:49.373Z,2.22
2023-04-27T01:38:17.352Z,2.42
2023-04-27T01:40:44.714Z,2.50
2023-04-27T01:43:12.097Z,2.30
2023-04-27T01:45:39.398Z,3.08
2023-04-27T01:48:07.032Z,2.00
2023-04-27T01:50:34.453Z,3.00
2023-04-27T01:53:02.079Z,2.28
2023-04-27T01:55:29.482Z,2.58
2023-04-27T01:57:56.915Z,2.28
2023-04-27T02:00:24.328Z,2.00
2023-04-27T02:02:53.588Z,3.05
2023-04-27T02:05:21.226Z,2.05
2023-04-27T02:07:49.791Z,2.55
2023-04-27T02:10:17.449Z,3.33
2023-04-27T02:12:44.855Z,2.15
2023-04-27T02:15:12.216Z,2.90
2023-04-27T02:17:40.061Z,3.97
2023-04-27T02:20:08.995Z,2.53
2023-04-27T02:22:36.484Z,3.78
2023-04-27T02:25:04.253Z,2.50
2023-04-27T02:27:31.638Z,3.20
2023-04-27T02:29:59.490Z,4.25
2023-04-27T02:32:27.384Z,2.60
2023-04-27T02:34:56.791Z,3.45
2023-04-27T02:37:24.229Z,2.25
2023-04-27T02:39:51.568Z,3.30
2023-04-27T02:42:18.950Z,3.63
2023-04-27T02:44:46.419Z,4.72
2023-04-27T02:47:13.838Z,2.38
2023-04-27T02:49:41.319Z,4.35
2023-04-27T02:52:09.090Z,5.32
2023-04-27T02:54:36.762Z,4.00
2023-04-27T02:57:04.235Z,3.92
2023-04-27T02:59:31.599Z,3.17
2023-04-27T03:01:59.211Z,2.78
2023-04-27T03:04:28.259Z,2.72
2023-04-27T03:06:55.833Z,5.10
2023-04-27T03:09:23.336Z,4.03
2023-04-27T03:11:50.758Z,3.58
2023-04-27T03:14:18.171Z,2.88
2023-04-27T03:16:45.778Z,4.35
2023-04-27T03:19:13.504Z,2.65
2023-04-27T03:21:40.772Z,5.10
2023-04-27T03:24:08.282Z,4.15
2023-04-27T03:26:35.622Z,3.88
2023-04-27T03:29:03.112Z,3.42
2023-04-27T03:31:30.555Z,2.60
2023-04-27T03:33:57.931Z,2.88
2023-04-27T03:36:25.515Z,4.68
2023-04-27T03:38:52.921Z,3.75
2023-04-27T03:41:20.307Z,3.25
2023-04-27T03:43:47.718Z,2.95
2023-04-27T03:46:15.097Z,4.78
2023-04-27T03:48:44.030Z,3.78
2023-04-27T03:51:11.569Z,3.33
2023-04-27T03:53:38.959Z,3.13
2023-04-27T03:56:06.473Z,3.33
2023-04-27T03:58:33.842Z,3.15
2023-04-27T04:01:01.475Z,3.55
2023-04-27T04:03:29.077Z,3.85
2023-04-27T04:05:56.730Z,2.60
2023-04-27T04:08:24.166Z,2.70
2023-04-27T04:10:51.554Z,2.83
2023-04-27T04:13:18.977Z,3.10
2023-04-27T04:15:46.385Z,2.58
2023-04-27T04:18:13.749Z,2.67
2023-04-27T04:20:41.674Z,3.70
2023-04-27T04:23:09.018Z,3.03
2023-04-27T04:25:36.464Z,2.83
2023-04-27T04:28:03.919Z,2.88
2023-04-27T04:30:31.344Z,4.65
2023-04-27T04:32:58.794Z,3.50
2023-04-27T04:35:26.266Z,3.95
2023-04-27T04:37:53.640Z,3.13
2023-04-27T04:40:21.574Z,3.50
2023-04-27T04:42:49.098Z,3.75
2023-04-27T04:45:16.160Z,3.45
2023-04-27T04:47:43.566Z,2.30
2023-04-27T04:50:12.049Z,4.15
2023-04-27T04:52:39.605Z,3.20
2023-04-27T04:55:07.262Z,2.72
2023-04-27T04:57:34.729Z,4.03
2023-04-27T05:00:02.620Z,3.70
2023-04-27T05:02:30.198Z,5.45
2023-04-27T05:04:58.015Z,3.58
2023-04-27T05:07:25.751Z,3.42
2023-04-27T05:09:53.320Z,5.32
2023-04-27T05:12:20.896Z,5.72
2023-04-27T05:14:48.639Z,3.85
2023-04-27T05:17:16.009Z,3.63
2023-04-27T05:19:43.500Z,4.13
2023-04-27T05:22:11.033Z,3.83
2023-04-27T05:24:38.693Z,4.82
2023-04-27T05:27:06.130Z,4.22
2023-04-27T05:29:33.890Z,3.28
2023-04-27T05:32:01.435Z,2.92
2023-04-27T05:34:28.943Z,3.28
2023-04-27T05:36:56.373Z,4.38
2023-04-27T05:39:23.797Z,5.68
2023-04-27T05:41:51.653Z,2.95
2023-04-27T05:44:19.054Z,3.08
2023-04-27T05:46:46.622Z,3.92
2023-04-27T05:49:14.383Z,2.38
2023-04-27T05:51:42.007Z,5.45
2023-04-27T05:54:10.056Z,5.95
2023-04-27T05:56:38.143Z,2.72
2023-04-27T05:59:06.193Z,3.70
2023-04-27T06:01:33.873Z,3.10
2023-04-27T06:04:02.061Z,3.65
2023-04-27T06:06:33.204Z,3.50
2023-04-27T06:09:00.768Z,2.42
2023-04-27T06:11:28.860Z,5.50
2023-04-27T06:13:56.422Z,3.90
2023-04-27T06:16:24.590Z,3.50
2023-04-27T06:18:52.424Z,4.07
2023-04-27T06:21:19.924Z,2.60
2023-04-27T06:23:47.621Z,2.75
2023-04-27T06:26:15.020Z,2.63
2023-04-27T06:28:42.531Z,3.80
2023-04-27T06:31:10.059Z,3.45
2023-04-27T06:33:37.755Z,2.58
2023-04-27T06:36:05.639Z,3.70
2023-04-27T06:38:33.196Z,2.85
2023-04-27T06:41:00.718Z,3.67
2023-04-27T06:43:28.066Z,4.30
2023-04-27T06:45:55.373Z,2.33
2023-04-27T06:48:23.058Z,2.65
2023-04-27T06:50:51.045Z,3.88
2023-04-27T06:53:18.492Z,3.65
2023-04-27T06:55:48.387Z,3.75
2023-04-27T06:58:16.260Z,4.45
2023-04-27T07:00:43.847Z,2.67
2023-04-27T07:03:11.898Z,2.95
2023-04-27T07:05:39.752Z,2.40
2023-04-27T07:08:08.841Z,3.67
2023-04-27T07:10:36.813Z,2.42
2023-04-27T07:13:05.830Z,2.45
2023-04-27T07:15:34.862Z,3.60
2023-04-27T07:18:02.459Z,3.03
2023-04-27T07:20:30.305Z,4.10
2023-04-27T07:22:57.886Z,3.13
2023-04-27T07:25:25.274Z,3.47
2023-04-27T07:27:52.705Z,3.63
2023-04-27T07:30:20.216Z,3.72
2023-04-27T07:32:55.095Z,3.90
2023-04-27T07:35:22.611Z,2.63
2023-04-27T07:37:50.099Z,2.47
2023-04-27T07:40:18.611Z,2.42
2023-04-27T07:42:46.566Z,3.20
2023-04-27T07:45:14.299Z,2.90
2023-04-27T07:47:42.576Z,2.28
2023-04-27T07:50:10.910Z,2.30
2023-04-27T07:52:38.320Z,2.88
2023-04-27T07:55:06.690Z,2.70
2023-04-27T07:57:34.228Z,2.08
2023-04-27T08:00:02.402Z,2.83
2023-04-27T08:02:31.833Z,5.88
2023-04-27T08:04:59.733Z,3.00
2023-04-27T08:07:28.118Z,2.03
2023-04-27T08:09:55.824Z,2.53
2023-04-27T08:12:23.273Z,2.22
2023-04-27T08:14:50.765Z,3.83
2023-04-27T08:17:18.698Z,2.05
2023-04-27T08:19:46.148Z,2.22
2023-04-27T08:22:13.657Z,5.45
2023-04-27T08:24:41.254Z,2.33
2023-04-27T08:27:08.725Z,2.03
2023-04-27T08:29:36.320Z,2.78
2023-04-27T08:32:04.787Z,2.67
2023-04-27T08:34:32.762Z,2.72
2023-04-27T08:37:00.636Z,2.88
2023-04-27T08:39:28.214Z,1.80
2023-04-27T08:41:56.072Z,2.70
2023-04-27T08:44:23.591Z,1.90
2023-04-27T08:46:51.908Z,2.30
2023-04-27T08:49:20.999Z,2.70
2023-04-27T08:51:48.746Z,2.40
2023-04-27T08:54:16.378Z,3.67
2023-04-27T08:56:43.775Z,2.60
2023-04-27T08:59:16.897Z,1.70
2023-04-27T09:01:49.349Z,1.50
2023-04-27T09:04:18.284Z,2.78
2023-04-27T09:06:46.511Z,2.60
2023-04-27T09:09:23.733Z,3.10
2023-04-27T09:11:51.489Z,2.40
2023-04-27T09:14:24.022Z,1.40
2023-04-27T09:16:59.585Z,2.25
2023-04-27T09:19:30.873Z,2.65
2023-04-27T09:22:11.571Z,1.80
2023-04-27T09:24:39.342Z,2.08
2023-04-27T09:27:07.505Z,1.83
2023-04-27T09:29:39.165Z,1.50
2023-04-27T09:32:20.924Z,2.13
2023-04-27T09:34:48.506Z,1.90
2023-04-27T09:37:16.671Z,1.63
2023-04-27T09:39:44.943Z,1.73
2023-04-27T09:42:13.573Z,2.33
2023-04-27T09:44:41.058Z,1.25
2023-04-27T09:47:08.808Z,1.63
2023-04-27T09:49:36.468Z,1.77
2023-04-27T09:52:04.280Z,3.25
2023-04-27T09:54:33.766Z,2.30
2023-04-27T09:57:33.835Z,1.42
2023-04-27T10:00:34.816Z,1.88
2023-04-27T10:03:37.116Z,2.08
2023-04-27T10:06:34.760Z,2.78
2023-04-27T10:09:06.856Z,2.10
2023-04-27T10:11:47.869Z,1.20
2023-04-27T10:14:21.526Z,1.55
2023-04-27T10:16:57.344Z,1.92
2023-04-27T10:19:25.522Z,1.38
2023-04-27T10:21:57.048Z,1.13
2023-04-27T10:24:41.053Z,2.30
2023-04-27T10:27:11.441Z,1.10
2023-04-27T10:29:48.009Z,1.42
2023-04-27T10:32:25.595Z,1.70
2023-04-27T10:35:04.121Z,1.63
2023-04-27T10:37:42.423Z,1.00
2023-04-27T10:40:17.471Z,0.80
2023-04-27T10:42:49.437Z,0.88
2023-04-27T10:45:30.950Z,1.00
2023-04-27T10:48:01.384Z,0.98
2023-04-27T10:50:29.516Z,1.02
2023-04-27T10:53:04.698Z,0.57
2023-04-27T10:55:32.959Z,0.75
2023-04-27T10:58:01.613Z,1.00
2023-04-27T11:00:39.124Z,0.93
2023-04-27T11:03:17.071Z,1.05
2023-04-27T11:05:47.033Z,1.02
2023-04-27T11:08:17.437Z,0.52
2023-04-27T11:10:53.440Z,0.93
2023-04-27T11:13:26.286Z,0.77
2023-04-27T11:15:57.873Z,0.38
2023-04-27T11:18:38.279Z,0.70
2023-04-27T11:21:16.189Z,0.85
2023-04-27T11:23:44.196Z,0.88
2023-04-27T11:26:18.602Z,1.00
2023-04-27T11:28:59.905Z,1.00
2023-04-27T11:31:28.751Z,0.95
2023-04-27T11:33:56.362Z,0.82
2023-04-27T11:36:24.465Z,1.15
2023-04-27T11:38:52.773Z,0.55
2023-04-27T11:41:20.225Z,1.20
2023-04-27T11:43:49.652Z,0.80
2023-04-27T11:46:21.707Z,1.50
2023-04-27T11:48:49.585Z,1.60
2023-04-27T11:51:16.988Z,2.00
2023-04-27T11:53:48.573Z,1.45
2023-04-27T11:56:16.008Z,1.00
2023-04-27T11:58:46.462Z,1.55
2023-04-27T12:01:15.516Z,1.10
2023-04-27T12:03:44.167Z,1.85
2023-04-27T12:06:31.314Z,1.20
2023-04-27T12:08:59.492Z,1.45
2023-04-27T12:11:30.239Z,1.83
2023-04-27T12:13:57.985Z,2.47
2023-04-27T12:16:25.452Z,1.25
2023-04-27T12:18:53.053Z,2.25
2023-04-27T12:21:20.636Z,1.58
2023-04-27T12:23:48.057Z,2.20
2023-04-27T12:26:15.504Z,1.27
2023-04-27T12:28:43.431Z,2.20
2023-04-27T12:31:16.662Z,1.48
2023-04-27T12:33:43.837Z,1.35
2023-04-27T12:36:11.577Z,1.25
2023-04-27T12:38:38.666Z,1.38
2023-04-27T12:41:06.263Z,1.27
2023-04-27T12:43:33.408Z,0.77
2023-04-27T12:46:00.886Z,1.10
2023-04-27T12:48:28.660Z,1.08
2023-04-27T12:50:56.891Z,0.73
2023-04-27T12:53:24.448Z,0.60
2023-04-27T12:55:51.957Z,0.63
2023-04-27T12:58:20.028Z,1.25
2023-04-27T13:00:47.439Z,0.93
2023-04-27T13:03:15.048Z,1.73
2023-04-27T13:05:42.178Z,0.95
2023-04-27T13:08:09.608Z,1.30
2023-04-27T13:10:37.685Z,1.20
2023-04-27T13:13:05.323Z,1.67
2023-04-27T13:15:32.759Z,1.40
2023-04-27T13:18:01.899Z,2.47
2023-04-27T13:20:29.044Z,2.05
2023-04-27T13:22:56.506Z,1.80
2023-04-27T13:25:24.226Z,1.75
2023-04-27T13:27:51.835Z,2.45
2023-04-27T13:30:19.276Z,2.00
2023-04-27T13:32:46.809Z,1.50
2023-04-27T13:35:14.531Z,1.77
2023-04-27T13:37:42.392Z,2.00
2023-04-27T13:40:11.259Z,1.80
2023-04-27T13:42:39.731Z,5.20
2023-04-27T13:45:07.544Z,2.47
2023-04-27T13:47:37.174Z,0.80
2023-04-27T13:50:10.108Z,1.83
2023-04-27T13:52:38.506Z,1.40
2023-04-27T13:55:08.709Z,0.90
2023-04-27T13:57:36.856Z,0.90
2023-04-27T14:00:08.385Z,1.20
2023-04-27T14:02:36.473Z,1.92
2023-04-27T14:05:05.320Z,1.38
2023-04-27T14:07:34.440Z,0.90
2023-04-27T14:10:02.858Z,1.08
2023-04-27T14:12:32.255Z,0.85
2023-04-27T14:15:00.017Z,0.95
2023-04-27T14:17:27.465Z,0.90
2023-04-27T14:20:00.680Z,1.70
2023-04-27T14:22:28.118Z,1.02
2023-04-27T14:24:56.575Z,1.25
2023-04-27T14:27:24.217Z,0.70
2023-04-27T14:29:51.729Z,1.23
2023-04-27T14:32:19.272Z,1.30
2023-04-27T14:34:46.835Z,0.80
2023-04-27T14:37:14.408Z,1.02
2023-04-27T14:39:43.652Z,1.05
2023-04-27T14:42:12.410Z,1.02
2023-04-27T14:44:39.758Z,0.90
2023-04-27T14:47:07.332Z,1.20
2023-04-27T14:49:34.691Z,1.73
2023-04-27T14:52:04.208Z,0.90
2023-04-27T14:54:31.623Z,1.27
2023-04-27T14:56:59.059Z,1.40
2023-04-27T14:59:26.428Z,1.35
2023-04-27T15:01:53.874Z,1.02
2023-04-27T15:04:21.450Z,1.13
2023-04-27T15:06:48.838Z,1.52
2023-04-27T15:09:16.421Z,1.95
2023-04-27T15:11:43.835Z,2.00
2023-04-27T15:14:12.202Z,2.65
2023-04-27T15:16:39.641Z,1.90
2023-04-27T15:19:06.998Z,1.75
2023-04-27T15:21:34.340Z,1.60
2023-04-27T15:24:01.902Z,2.10
2023-04-27T15:26:29.304Z,1.67
2023-04-27T15:28:58.243Z,1.70
2023-04-27T15:31:26.463Z,1.55
2023-04-27T15:33:54.765Z,2.30
2023-04-27T15:36:23.165Z,1.55
2023-04-27T15:38:51.978Z,1.85
2023-04-27T15:41:19.535Z,2.13
2023-04-27T15:43:47.576Z,1.63
2023-04-27T15:46:15.729Z,1.58
2023-04-27T15:48:43.154Z,1.30
2023-04-27T15:51:10.673Z,2.00
2023-04-27T15:53:38.330Z,1.20
2023-04-27T15:56:05.964Z,1.20
2023-04-27T15:58:33.538Z,1.10
2023-04-27T16:01:01.504Z,1.60
2023-04-27T16:03:29.082Z,1.55
2023-04-27T16:05:56.588Z,1.20
2023-04-27T16:08:25.696Z,1.75
2023-04-27T16:10:53.367Z,1.95
2023-04-27T16:13:20.823Z,1.80
2023-04-27T16:15:48.141Z,1.30
2023-04-27T16:18:15.554Z,1.52
2023-04-27T16:20:42.917Z,1.65
2023-04-27T16:23:10.490Z,1.40
2023-04-27T16:25:37.836Z,1.73
2023-04-27T16:28:05.276Z,1.38
2023-04-27T16:30:32.689Z,1.10
2023-04-27T16:33:00.421Z,1.50
2023-04-27T16:35:29.246Z,1.38
2023-04-27T16:37:56.771Z,1.83
2023-04-27T16:40:24.189Z,1.15
2023-04-27T16:42:52.127Z,0.68
2023-04-27T16:45:19.689Z,0.90
2023-04-27T16:47:47.664Z,0.85
2023-04-27T16:50:20.636Z,0.75
2023-04-27T16:52:51.182Z,0.60
2023-04-27T16:55:30.909Z,0.93
2023-04-27T16:57:58.267Z,1.10
2023-04-27T17:00:26.704Z,1.40
2023-04-27T17:02:54.290Z,1.10
2023-04-27T17:05:22.002Z,1.40
2023-04-27T17:07:49.590Z,1.30
2023-04-27T17:10:18.578Z,1.20
2023-04-27T17:12:46.006Z,1.65
2023-04-27T17:15:13.505Z,1.30
2023-04-27T17:17:41.459Z,1.10
2023-04-27T17:20:10.279Z,0.80
2023-04-27T17:22:38.090Z,0.93
2023-04-27T17:25:06.238Z,0.80
2023-04-27T17:27:33.933Z,0.60
2023-04-27T17:30:01.546Z,0.68
2023-04-27T17:32:29.246Z,0.63
2023-04-27T17:34:57.719Z,0.50
2023-04-27T17:37:25.228Z,0.90
2023-04-27T17:39:53.975Z,0.73
2023-04-27T17:42:21.402Z,1.05
2023-04-27T17:44:49.019Z,0.90
2023-04-27T17:47:18.944Z,0.60
2023-04-27T17:49:46.420Z,0.93
2023-04-27T17:52:13.867Z,1.05
2023-04-27T17:54:41.523Z,0.57
2023-04-27T17:57:09.553Z,0.70
2023-04-27T17:59:37.230Z,0.70
2023-04-27T18:02:04.889Z,0.68
2023-04-27T18:04:32.400Z,0.77
2023-04-27T18:06:59.916Z,0.90
2023-04-27T18:09:28.731Z,0.98
2023-04-27T18:11:56.818Z,1.00
2023-04-27T18:14:24.182Z,0.82
2023-04-27T18:16:51.882Z,0.65
2023-04-27T18:19:19.394Z,0.85
2023-04-27T18:21:46.868Z,1.00
2023-04-27T18:24:14.289Z,1.17
2023-04-27T18:26:41.658Z,1.00
2023-04-27T18:29:09.053Z,1.10
2023-04-27T18:31:36.769Z,1.30
2023-04-27T18:34:04.249Z,1.10
2023-04-27T18:36:31.705Z,1.02
2023-04-27T18:38:59.672Z,1.00
2023-04-27T18:41:27.198Z,1.00
2023-04-27T18:43:54.599Z,0.88
2023-04-27T18:46:22.003Z,1.27
2023-04-27T18:48:49.499Z,1.08
2023-04-27T18:51:16.837Z,1.15
2023-04-27T18:53:44.179Z,1.33
2023-04-27T18:56:12.154Z,1.10
2023-04-27T18:58:39.519Z,1.23
2023-04-27T19:01:07.099Z,1.60
2023-04-27T19:03:37.025Z,1.95
2023-04-27T19:06:04.555Z,1.30
2023-04-27T19:08:31.959Z,1.73
2023-04-27T19:11:00.317Z,1.20
2023-04-27T19:13:27.789Z,1.60
2023-04-27T19:15:55.949Z,1.52
2023-04-27T19:18:23.455Z,1.45
2023-04-27T19:20:51.716Z,1.30
2023-04-27T19:23:21.896Z,2.20
2023-04-27T19:25:49.759Z,1.27
2023-04-27T19:28:18.882Z,1.67
2023-04-27T19:30:46.858Z,1.30
2023-04-27T19:33:15.142Z,1.80
2023-04-27T19:35:44.123Z,1.40
2023-04-27T19:38:11.679Z,1.63
2023-04-27T19:40:39.054Z,1.58
2023-04-27T19:43:07.139Z,1.90
2023-04-27T19:45:34.324Z,1.60
2023-04-27T19:48:01.744Z,1.90
2023-04-27T19:50:29.221Z,2.13
2023-04-27T19:52:56.549Z,1.60
2023-04-27T19:55:24.050Z,2.70
2023-04-27T19:57:52.279Z,1.63
2023-04-27T20:00:19.745Z,1.98
2023-04-27T20:02:54.346Z,1.60
2023-04-27T20:05:22.268Z,1.73
2023-04-27T20:07:52.467Z,1.27
2023-04-27T20:10:19.875Z,1.70
2023-04-27T20:12:56.250Z,1.77
2023-04-27T20:15:24.749Z,1.35
2023-04-27T20:17:53.698Z,1.55
2023-04-27T20:20:21.334Z,1.48
2023-04-27T20:22:48.674Z,1.25
2023-04-27T20:25:16.204Z,1.50
2023-04-27T20:27:47.394Z,1.50
2023-04-27T20:30:14.826Z,1.73
2023-04-27T20:32:42.262Z,1.92
2023-04-27T20:35:11.365Z,1.58
2023-04-27T20:37:40.245Z,2.08
2023-04-27T20:40:11.902Z,1.20
2023-04-27T20:42:42.600Z,1.50
2023-04-27T20:45:11.661Z,1.80
2023-04-27T20:47:39.258Z,1.90
2023-04-27T20:50:08.089Z,1.90
2023-04-27T20:52:35.918Z,1.58
2023-04-27T20:55:04.591Z,1.50
2023-04-27T20:57:32.445Z,1.95
2023-04-27T20:59:59.895Z,2.22
2023-04-27T21:02:27.361Z,2.63
2023-04-27T21:04:54.786Z,2.08
2023-04-27T21:07:22.325Z,1.80
2023-04-27T21:09:49.656Z,1.48
2023-04-27T21:12:17.841Z,2.28
2023-04-27T21:14:45.438Z,1.75
2023-04-27T21:17:15.255Z,1.85
2023-04-27T21:19:42.717Z,1.92
2023-04-27T21:22:10.182Z,1.70
2023-04-27T21:24:37.594Z,2.08
2023-04-27T21:27:05.004Z,2.33
2023-04-27T21:29:34.209Z,1.98
2023-04-27T21:32:01.719Z,2.15
2023-04-27T21:34:29.196Z,1.92
2023-04-27T21:36:56.735Z,2.10
2023-04-27T21:39:24.118Z,2.10
2023-04-27T21:41:51.879Z,1.80
2023-04-27T21:44:19.196Z,1.95
2023-04-27T21:46:46.667Z,2.35
2023-04-27T21:49:14.147Z,2.22
2023-04-27T21:51:41.535Z,3.25
2023-04-27T21:54:08.879Z,1.98
2023-04-27T21:56:37.696Z,2.10
2023-04-27T21:59:05.317Z,2.58
2023-04-27T22:01:33.291Z,1.80
2023-04-27T22:04:01.055Z,2.17
2023-04-27T22:06:45.200Z,2.10
2023-04-27T22:09:30.479Z,2.20
2023-04-27T22:12:12.453Z,1.80
2023-04-27T22:15:00.358Z,1.60
2023-04-27T22:17:41.556Z,2.30
2023-04-27T22:20:25.905Z,1.90
2023-04-27T22:22:55.296Z,1.77
2023-04-27T22:25:45.684Z,2.17
2023-04-27T22:28:41.685Z,2.25
2023-04-27T22:31:30.526Z,2.10
2023-04-27T22:34:14.477Z,2.53
2023-04-27T22:36:42.156Z,3.35
2023-04-27T22:39:27.526Z,2.88
2023-04-27T22:42:18.915Z,1.63
2023-04-27T22:45:07.684Z,2.10
2023-04-27T22:47:52.468Z,2.55
2023-04-27T22:50:24.976Z,2.78
2023-04-27T22:52:53.065Z,2.10
2023-04-27T22:55:20.642Z,2.00
2023-04-27T22:57:49.956Z,2.55
2023-04-27T23:00:17.691Z,2.40
2023-04-27T23:02:45.231Z,2.20
2023-04-27T23:05:12.685Z,2.10
2023-04-27T23:07:41.398Z,2.33
2023-04-27T23:10:09.329Z,1.88
2023-04-27T23:12:37.921Z,2.83
2023-04-27T23:15:05.731Z,2.63
2023-04-27T23:17:33.550Z,2.53
2023-04-27T23:20:02.048Z,1.98
2023-04-27T23:22:29.518Z,3.00
2023-04-27T23:24:56.878Z,2.50
2023-04-27T23:27:25.104Z,2.08
2023-04-27T23:29:52.843Z,2.08
2023-04-27T23:32:21.224Z,2.47
2023-04-27T23:34:48.959Z,1.98
2023-04-27T23:37:16.366Z,1.80
2023-04-27T23:39:43.723Z,2.13
2023-04-27T23:42:11.294Z,2.70
2023-04-27T23:44:38.684Z,1.88
2023-04-27T23:47:06.453Z,1.88
2023-04-27T23:49:33.893Z,2.00
2023-04-27T23:52:01.466Z,2.75
2023-04-27T23:54:32.261Z,1.75
2023-04-27T23:56:59.652Z,2.47
2023-04-27T23:59:27.063Z,2.45
